Terminal Aerodrome Forecast
Issued by NWS

Home | Current Version | Previous Version | Text Only | Print | Product List | Glossary On
Versions: 1 2 3 4 5 6 7 8 9 10 11 12 13 14
000
FTUS44 KJAN 292340
TAFHKS
TAF
KHKS 292340Z 3000/3024 19012G20KT P6SM SCT030 SCT100
     FM300700 20008KT P6SM VCSH SCT008 BKN015
     FM301400 30008KT P6SM VCSH BKN025 BKN040
     FM301900 35005KT P6SM VCSH SCT035 BKN050=

USA.gov is the U.S. government's official web portal to all federal, state and local government web resources and services.